Time;durP1;ratioP1;P1;durP2;ratioP2;P2;SDS_P1;SDS_P2;PMS_P1;PMS_P2;Temp;Humidity;BMP_temperature;BMP_pressure;BME280_temperature;BME280_humidity;BME280_pressure;Samples;Min_cycle;Max_cycle;Signal;HPM_P1;HPM_P2
2023/05/31 00:01:48;;;;;;;5.50;2.70;;;;;;;12.39;100.00;102613.19;4977101;28;20722;-81
2023/05/31 00:04:13;;;;;;;4.68;3.20;;;;;;;12.37;100.00;102618.34;4974802;28;20026;-81
2023/05/31 00:06:39;;;;;;;5.60;2.95;;;;;;;12.46;99.09;102612.63;4982067;28;20030;-81
2023/05/31 00:09:04;;;;;;;4.72;2.60;;;;;;;12.52;98.86;102616.84;4985609;28;20038;-81
2023/05/31 00:11:30;;;;;;;4.63;2.42;;;;;;;12.41;99.58;102616.47;5003170;28;20053;-81
2023/05/31 00:13:55;;;;;;;5.72;3.15;;;;;;;12.16;100.00;102612.78;4978779;28;20114;-81
2023/05/31 00:16:20;;;;;;;4.43;2.47;;;;;;;12.40;99.45;102621.28;4970271;28;20558;-81
2023/05/31 00:18:46;;;;;;;6.07;3.28;;;;;;;12.47;99.04;102614.28;5000910;28;20124;-81
2023/05/31 00:21:11;;;;;;;6.32;3.17;;;;;;;12.41;98.57;102611.69;4983703;28;20038;-81
2023/05/31 00:23:37;;;;;;;7.60;2.97;;;;;;;12.46;98.04;102618.25;4979372;28;20035;-81
2023/05/31 00:26:02;;;;;;;6.43;2.72;;;;;;;12.28;99.92;102607.22;4978855;28;20038;-81
2023/05/31 00:28:28;;;;;;;4.50;2.17;;;;;;;12.34;98.97;102617.06;4984285;28;20030;-81
2023/05/31 00:30:53;;;;;;;6.25;3.35;;;;;;;12.43;97.94;102621.75;4980813;28;20455;-81
2023/05/31 00:33:18;;;;;;;6.00;2.45;;;;;;;12.44;97.56;102614.97;4977712;28;20022;-81
2023/05/31 00:35:44;;;;;;;6.05;2.72;;;;;;;12.46;97.13;102615.44;4988489;28;20045;-81
2023/05/31 00:38:09;;;;;;;5.85;2.70;;;;;;;12.30;99.78;102616.13;4979340;28;20437;-81
2023/05/31 00:40:35;;;;;;;5.00;2.92;;;;;;;12.25;99.25;102612.69;4984152;28;20030;-81
2023/05/31 00:43:00;;;;;;;6.78;3.05;;;;;;;12.30;98.77;102613.31;4984695;28;20030;-81
2023/05/31 00:45:26;;;;;;;8.10;4.00;;;;;;;12.21;99.30;102609.78;4980466;28;20534;-81
2023/05/31 00:47:51;;;;;;;4.80;3.55;;;;;;;12.25;98.74;102607.09;4976204;28;20481;-81
2023/05/31 00:50:17;;;;;;;4.78;2.38;;;;;;;12.21;98.42;102612.59;4972213;28;20038;-81
2023/05/31 00:52:47;;;;;;;3.78;2.70;;;;;;;12.26;98.47;102623.59;4974974;28;20033;-81
2023/05/31 00:55:13;;;;;;;6.05;2.70;;;;;;;12.13;99.17;102621.91;4988624;28;20503;-81
2023/05/31 00:57:40;;;;;;;4.53;2.70;;;;;;;12.18;98.74;102613.28;4972639;28;20049;-81
2023/05/31 01:00:07;;;;;;;4.70;2.83;;;;;;;12.23;97.49;102620.66;4978089;28;20553;-81
2023/05/31 01:02:34;;;;;;;5.05;2.97;;;;;;;12.07;99.12;102612.88;4977144;28;20026;-81
2023/05/31 01:05:01;;;;;;;6.00;3.38;;;;;;;12.08;99.10;102620.16;4980335;28;20038;-81
2023/05/31 01:07:26;;;;;;;5.72;2.70;;;;;;;12.03;99.55;102619.53;4971419;28;20031;-81
2023/05/31 01:09:52;;;;;;;5.18;2.72;;;;;;;11.98;99.84;102612.16;4973348;28;20512;-81
2023/05/31 01:12:26;;;;;;;5.40;3.05;;;;;;;12.06;98.76;102614.06;4974893;28;20026;-81
2023/05/31 01:15:17;;;;;;;4.55;2.65;;;;;;;12.02;98.82;102603.84;4976802;28;21622;-81
2023/05/31 01:18:09;;;;;;;4.35;3.00;;;;;;;11.95;99.53;102610.03;4980001;28;20580;-81
2023/05/31 01:20:37;;;;;;;9.45;3.28;;;;;;;12.03;98.79;102613.94;4976634;28;20410;-81
2023/05/31 01:23:40;;;;;;;6.85;3.63;;;;;;;11.98;99.56;102614.97;4977239;28;20022;-81
2023/05/31 01:26:18;;;;;;;;;;;;;;;11.99;99.15;102617.44;4976607;28;20032;-81
2023/05/31 01:28:49;;;;;;;6.22;3.03;;;;;;;11.99;98.37;102613.78;4978349;28;20478;-81
2023/05/31 01:31:18;;;;;;;4.35;2.55;;;;;;;11.91;98.72;102612.72;4975657;28;20069;-81
2023/05/31 01:33:43;;;;;;;4.80;3.05;;;;;;;11.97;98.08;102602.94;4971243;28;20466;-81
2023/05/31 01:36:09;;;;;;;5.93;2.75;;;;;;;11.93;97.85;102601.13;4975723;28;20324;-81
2023/05/31 01:38:34;;;;;;;5.97;3.33;;;;;;;11.83;98.68;102596.75;4970634;28;20081;-81
2023/05/31 01:41:01;;;;;;;5.32;2.88;;;;;;;11.84;98.52;102606.81;4975448;28;20106;-81
2023/05/31 01:43:27;;;;;;;7.53;3.65;;;;;;;11.81;98.17;102599.09;4972106;28;20333;-81
2023/05/31 01:45:57;;;;;;;5.28;2.88;;;;;;;11.85;97.84;102597.25;4973731;28;20518;-81
2023/05/31 01:48:24;;;;;;;4.55;2.70;;;;;;;11.71;99.00;102605.13;4969765;28;20584;-81
2023/05/31 01:50:51;;;;;;;5.72;3.03;;;;;;;11.61;100.00;102606.34;4974579;28;20590;-81
2023/05/31 01:53:17;;;;;;;6.35;3.22;;;;;;;11.72;99.59;102604.78;4976516;28;20116;-81
2023/05/31 01:55:43;;;;;;;6.05;2.75;;;;;;;11.88;97.77;102604.13;4975442;28;20058;-81
2023/05/31 01:58:10;;;;;;;6.47;3.55;;;;;;;11.59;100.00;102598.31;4974717;28;20034;-81
2023/05/31 02:00:36;;;;;;;7.38;3.47;;;;;;;11.62;100.00;102607.19;4980433;28;20034;-81
2023/05/31 02:03:04;;;;;;;4.95;2.90;;;;;;;11.66;99.88;102603.34;4977247;28;20030;-81
2023/05/31 02:05:29;;;;;;;9.13;4.25;;;;;;;11.63;100.00;102592.00;4975711;28;20450;-81
2023/05/31 02:07:55;;;;;;;9.32;3.00;;;;;;;11.71;99.15;102588.28;4973492;28;20133;-83
2023/05/31 02:10:21;;;;;;;6.22;3.03;;;;;;;11.72;99.33;102592.72;4974684;28;20026;-81
2023/05/31 02:12:50;;;;;;;4.97;3.00;;;;;;;11.71;98.65;102589.09;4976231;28;20041;-80
2023/05/31 02:15:15;;;;;;;4.05;2.65;;;;;;;11.68;99.48;102592.63;4971400;28;20073;-81
2023/05/31 02:17:50;;;;;;;8.57;3.58;;;;;;;11.64;100.00;102593.63;4980547;28;20026;-81
2023/05/31 02:20:17;;;;;;;8.48;3.15;;;;;;;11.67;98.99;102598.56;4974732;28;20045;-81
2023/05/31 02:22:44;;;;;;;6.10;3.60;;;;;;;11.59;100.00;102592.69;4979600;28;20137;-81
2023/05/31 02:25:11;;;;;;;5.95;3.42;;;;;;;11.59;99.33;102592.69;4974683;28;20466;-81
2023/05/31 02:27:38;;;;;;;4.45;2.70;;;;;;;11.63;98.79;102600.41;4973533;28;20485;-81
2023/05/31 02:30:05;;;;;;;5.00;3.97;;;;;;;11.47;100.00;102594.59;4988080;28;20026;-81
2023/05/31 02:32:35;;;;;;;5.28;2.85;;;;;;;11.58;98.43;102596.66;4972922;28;20030;-81
2023/05/31 02:35:05;;;;;;;5.95;3.33;;;;;;;11.41;99.88;102608.00;4977247;28;20460;-81
2023/05/31 02:37:31;;;;;;;6.75;3.17;;;;;;;11.26;100.00;102595.44;4973426;28;20047;-82
2023/05/31 02:39:56;;;;;;;6.25;3.08;;;;;;;11.43;100.00;102599.28;4977361;28;20038;-81
2023/05/31 02:42:21;;;;;;;8.15;3.42;;;;;;;11.53;99.36;102594.06;4973499;28;20065;-82
2023/05/31 02:44:47;;;;;;;6.07;3.50;;;;;;;11.39;99.78;102596.31;4974531;28;20038;-82
2023/05/31 02:47:12;;;;;;;4.50;3.22;;;;;;;11.51;98.71;102601.16;4990552;28;20061;-82
2023/05/31 02:49:38;;;;;;;6.57;3.78;;;;;;;11.37;100.00;102601.44;4967900;28;20035;-82
2023/05/31 02:52:03;;;;;;;9.15;3.60;;;;;;;11.33;100.00;102598.50;4973798;28;20031;-81
2023/05/31 02:54:28;;;;;;;8.30;3.83;;;;;;;11.37;100.00;102604.25;4973054;28;20134;-81
2023/05/31 02:56:54;;;;;;;9.57;3.90;;;;;;;11.49;99.12;102600.69;4980678;28;20054;-81
2023/05/31 02:59:19;;;;;;;5.35;2.63;;;;;;;11.31;100.00;102603.63;4976424;28;20073;-81
2023/05/31 03:01:45;;;;;;;6.72;3.70;;;;;;;11.39;100.00;102605.53;4989824;28;20100;-81
2023/05/31 03:04:10;;;;;;;5.95;3.78;;;;;;;11.38;99.94;102609.53;4976090;28;20054;-81
2023/05/31 03:06:35;;;;;;;7.15;3.60;;;;;;;11.28;100.00;102607.13;4980890;28;20096;-81
2023/05/31 03:09:01;;;;;;;6.80;3.47;;;;;;;11.36;100.00;102606.25;4982227;28;20026;-81
2023/05/31 03:11:26;;;;;;;8.40;3.70;;;;;;;11.32;100.00;102598.81;4976719;28;20611;-81
2023/05/31 03:13:52;;;;;;;9.25;3.63;;;;;;;11.39;99.94;102610.34;4984284;28;20034;-81
2023/05/31 03:16:20;;;;;;;9.00;4.13;;;;;;;11.35;100.00;102609.38;4973401;28;20039;-82
2023/05/31 03:18:45;;;;;;;8.63;4.30;;;;;;;10.66;100.00;102617.00;4977719;28;20038;-81
2023/05/31 03:21:11;;;;;;;9.25;4.28;;;;;;;11.06;100.00;102604.63;4980426;28;20117;-81
2023/05/31 03:23:36;;;;;;;7.28;3.95;;;;;;;10.99;100.00;102602.34;4980229;28;20085;-81
2023/05/31 03:26:01;;;;;;;7.55;3.80;;;;;;;11.24;100.00;102613.75;4980913;28;20062;-81
2023/05/31 03:28:27;;;;;;;8.65;3.83;;;;;;;11.10;100.00;102614.81;4978778;28;20030;-81
2023/05/31 03:30:52;;;;;;;8.95;3.72;;;;;;;11.17;100.00;102615.09;4975471;28;20034;-81
2023/05/31 03:33:18;;;;;;;6.88;3.97;;;;;;;11.05;100.00;102617.00;4980213;28;20034;-81
2023/05/31 03:35:43;;;;;;;9.55;3.83;;;;;;;10.88;100.00;102612.28;4977968;28;20038;-81
2023/05/31 03:38:08;;;;;;;9.70;4.78;;;;;;;11.19;100.00;102612.78;4977292;28;20425;-81
2023/05/31 03:40:34;;;;;;;8.55;4.57;;;;;;;11.22;100.00;102608.47;4972693;28;20125;-81
2023/05/31 03:42:59;;;;;;;7.57;4.22;;;;;;;11.23;100.00;102612.09;4972860;28;20430;-81
2023/05/31 03:45:25;;;;;;;7.20;4.05;;;;;;;11.30;100.00;102603.94;4965132;28;20045;-82
2023/05/31 03:47:50;;;;;;;9.90;3.25;;;;;;;11.23;100.00;102612.09;4962947;28;20110;-82
2023/05/31 03:50:16;;;;;;;6.90;3.70;;;;;;;11.26;100.00;102617.00;4976081;28;20658;-83
2023/05/31 03:52:41;;;;;;;8.02;3.85;;;;;;;11.18;100.00;102615.91;4981683;28;20482;-82
2023/05/31 03:55:07;;;;;;;10.25;4.47;;;;;;;11.21;100.00;102620.03;4960755;28;20834;-82
2023/05/31 03:57:32;;;;;;;8.38;3.83;;;;;;;11.12;100.00;102611.66;4974902;28;20089;-81
2023/05/31 03:59:59;;;;;;;7.22;3.58;;;;;;;11.15;100.00;102616.59;4980326;28;20034;-81
2023/05/31 04:02:25;;;;;;;5.53;3.22;;;;;;;11.29;100.00;102610.72;4980943;28;20037;-82
2023/05/31 04:04:51;;;;;;;9.57;4.07;;;;;;;11.22;100.00;102624.47;4980220;28;22295;-81
2023/05/31 04:07:16;;;;;;;7.63;4.40;;;;;;;11.16;100.00;102612.63;4970331;28;20390;-81
2023/05/31 04:09:41;;;;;;;6.80;3.80;;;;;;;11.14;100.00;102617.75;4969801;28;20120;-81
2023/05/31 04:12:07;;;;;;;6.18;4.00;;;;;;;11.04;100.00;102610.56;4966850;28;20038;-81
2023/05/31 04:14:32;;;;;;;6.20;3.35;;;;;;;11.14;100.00;102612.97;4953888;28;20189;-81
2023/05/31 04:16:58;;;;;;;7.93;3.80;;;;;;;11.26;100.00;102620.66;4959361;28;20047;-81
2023/05/31 04:19:23;;;;;;;7.10;3.60;;;;;;;11.24;100.00;102608.97;4969400;28;20133;-81
2023/05/31 04:21:48;;;;;;;8.95;3.88;;;;;;;11.17;100.00;102615.09;4970439;28;20926;-81
2023/05/31 04:24:14;;;;;;;6.32;3.28;;;;;;;11.15;100.00;102625.84;4972944;28;20478;-81
2023/05/31 04:26:39;;;;;;;9.73;5.05;;;;;;;11.04;100.00;102612.53;4967449;28;20035;-81
2023/05/31 04:29:05;;;;;;;7.00;3.40;;;;;;;11.15;100.00;102620.22;4963935;28;20038;-81
2023/05/31 04:31:30;;;;;;;8.77;4.18;;;;;;;11.11;100.00;102613.66;4968642;28;20161;-81
2023/05/31 04:33:57;;;;;;;8.00;4.00;;;;;;;11.22;100.00;102618.88;4969647;28;20459;-81
2023/05/31 04:36:25;;;;;;;9.75;4.53;;;;;;;10.99;100.00;102621.97;4977334;28;20034;-81
2023/05/31 04:38:54;;;;;;;9.65;6.13;;;;;;;10.80;100.00;102630.00;4965979;28;20491;-82
2023/05/31 04:41:20;;;;;;;11.25;4.55;;;;;;;10.83;100.00;102632.09;4976203;28;20404;-81
2023/05/31 04:43:47;;;;;;;8.80;4.40;;;;;;;11.14;100.00;102628.97;4990640;28;20041;-81
2023/05/31 04:46:12;;;;;;;7.60;3.92;;;;;;;11.22;100.00;102627.28;4960925;28;20494;-81
2023/05/31 04:48:38;;;;;;;7.97;5.15;;;;;;;11.00;100.00;102637.59;4984083;28;20125;-80
2023/05/31 04:51:04;;;;;;;9.32;4.43;;;;;;;10.86;100.00;102632.25;4973412;28;20072;-80
2023/05/31 04:53:30;;;;;;;10.30;4.45;;;;;;;11.08;100.00;102633.13;4979108;28;20034;-80
2023/05/31 04:55:55;;;;;;;13.20;5.20;;;;;;;11.02;100.00;102631.69;4967605;28;20038;-80
2023/05/31 04:58:20;;;;;;;10.15;4.55;;;;;;;10.94;100.00;102639.81;4975000;28;20558;-80
2023/05/31 05:00:46;;;;;;;9.23;3.78;;;;;;;11.15;100.00;102637.03;4976559;28;20458;-80
2023/05/31 05:03:12;;;;;;;11.45;5.95;;;;;;;11.10;100.00;102625.19;4974854;28;20041;-81
2023/05/31 05:05:37;;;;;;;10.15;5.47;;;;;;;10.97;100.00;102633.50;4977344;28;20038;-80
2023/05/31 05:08:03;;;;;;;10.73;4.60;;;;;;;11.01;100.00;102622.47;4985537;28;20040;-81
2023/05/31 05:10:29;;;;;;;8.57;3.97;;;;;;;11.35;100.00;102631.81;4969521;28;20026;-81
2023/05/31 05:12:54;;;;;;;12.55;5.45;;;;;;;11.00;100.00;102626.41;4973048;28;20122;-81
2023/05/31 05:15:19;;;;;;;7.75;4.57;;;;;;;11.10;100.00;102628.81;4967156;28;20057;-80
2023/05/31 05:17:45;;;;;;;11.90;4.88;;;;;;;10.89;100.00;102622.34;4972287;28;20113;-80
2023/05/31 05:20:11;;;;;;;8.77;4.35;;;;;;;11.13;100.00;102619.75;4977202;28;20042;-81
2023/05/31 05:22:37;;;;;;;10.27;4.40;;;;;;;11.32;100.00;102626.84;4974351;28;20076;-80
2023/05/31 05:25:02;;;;;;;12.32;4.57;;;;;;;11.53;100.00;102624.91;4968425;28;20065;-80
2023/05/31 05:27:28;;;;;;;8.95;5.18;;;;;;;11.23;100.00;102623.31;4972015;28;20141;-80
2023/05/31 05:29:53;;;;;;;11.52;5.72;;;;;;;11.07;100.00;102628.66;4976523;28;20038;-81
2023/05/31 05:32:19;;;;;;;11.98;5.22;;;;;;;11.01;100.00;102632.84;4974726;28;20030;-80
2023/05/31 05:34:44;;;;;;;11.25;4.75;;;;;;;11.41;100.00;102630.44;4983903;28;20515;-81
2023/05/31 05:37:10;;;;;;;13.20;5.40;;;;;;;11.42;100.00;102626.47;4979702;28;20036;-81
2023/05/31 05:39:35;;;;;;;12.07;5.18;;;;;;;11.38;100.00;102631.09;4963854;28;20041;-80
2023/05/31 05:42:02;;;;;;;10.25;4.72;;;;;;;11.39;100.00;102624.34;4964301;28;20026;-80
2023/05/31 05:44:28;;;;;;;12.23;5.25;;;;;;;11.30;100.00;102630.03;4973456;28;20061;-80
2023/05/31 05:46:53;;;;;;;11.93;4.97;;;;;;;11.45;100.00;102624.94;4969582;28;20133;-80
2023/05/31 05:49:18;;;;;;;13.48;5.97;;;;;;;11.39;100.00;102624.34;4960346;28;20050;-80
2023/05/31 05:51:44;;;;;;;14.13;5.32;;;;;;;11.33;100.00;102623.72;4965027;28;20026;-81
2023/05/31 05:54:09;;;;;;;11.80;6.22;;;;;;;11.47;100.00;102612.25;4964392;28;20104;-80
2023/05/31 05:56:35;;;;;;;15.27;6.32;;;;;;;11.56;100.00;102610.19;4973520;28;20044;-80
2023/05/31 05:59:00;;;;;;;16.83;6.80;;;;;;;11.55;100.00;102608.56;4970903;28;20060;-80
2023/05/31 06:01:26;;;;;;;11.30;6.13;;;;;;;11.82;100.00;102617.56;4964874;28;20035;-80
2023/05/31 06:03:52;;;;;;;11.18;5.00;;;;;;;11.86;100.00;102610.09;4969493;28;20030;-81
2023/05/31 06:06:18;;;;;;;11.75;4.75;;;;;;;12.52;100.00;102616.84;4976711;28;20512;-75
2023/05/31 06:08:44;;;;;;;10.25;5.63;;;;;;;12.55;100.00;102619.78;4977441;28;20170;-76
2023/05/31 06:11:10;;;;;;;13.32;6.32;;;;;;;12.53;100.00;102621.31;4978952;28;20088;-75
2023/05/31 06:13:35;;;;;;;15.07;6.45;;;;;;;12.43;100.00;102619.75;4976794;28;20140;-75
2023/05/31 06:16:03;;;;;;;16.65;7.00;;;;;;;12.51;100.00;102615.22;4988805;28;20122;-75
2023/05/31 06:18:28;;;;;;;12.85;6.80;;;;;;;12.37;100.00;102616.34;4978643;28;20052;-75
2023/05/31 06:20:55;;;;;;;12.88;6.40;;;;;;;12.32;100.00;102616.59;4976479;28;20507;-75
2023/05/31 06:23:20;;;;;;;13.48;5.97;;;;;;;12.50;100.00;102616.38;4979428;28;20683;-74
2023/05/31 06:25:46;;;;;;;12.13;6.28;;;;;;;12.57;100.00;102613.81;4973439;28;20129;-75
2023/05/31 06:28:11;;;;;;;15.48;6.85;;;;;;;12.79;100.00;102609.72;4988074;28;20054;-76
2023/05/31 06:30:36;;;;;;;11.38;6.57;;;;;;;12.64;100.00;102608.44;4987548;28;20034;-76
2023/05/31 06:33:02;;;;;;;12.90;6.50;;;;;;;12.70;100.00;102611.84;4982785;28;20053;-76
2023/05/31 06:35:28;;;;;;;13.35;7.07;;;;;;;12.78;100.00;102611.72;4976892;28;20122;-77
2023/05/31 06:37:54;;;;;;;16.85;8.00;;;;;;;12.72;100.00;102615.13;4977936;28;20391;-77
2023/05/31 06:40:19;;;;;;;14.77;6.60;;;;;;;12.79;100.00;102613.34;4981038;28;20026;-77
2023/05/31 06:42:44;;;;;;;19.33;7.00;;;;;;;12.80;100.00;102617.81;4973016;28;20491;-77
2023/05/31 06:45:10;;;;;;;14.15;5.63;;;;;;;12.88;100.00;102607.63;4975118;28;20031;-77
2023/05/31 06:47:35;;;;;;;12.05;5.93;;;;;;;13.02;100.00;102626.94;4986017;28;20041;-77
2023/05/31 06:50:02;;;;;;;12.85;6.32;;;;;;;13.02;100.00;102618.50;4974606;28;20038;-77
2023/05/31 06:52:27;;;;;;;12.38;6.70;;;;;;;13.12;100.00;102617.22;4977740;28;20458;-77
2023/05/31 06:54:53;;;;;;;12.90;6.45;;;;;;;13.21;100.00;102621.53;4981963;28;20035;-78
2023/05/31 06:57:18;;;;;;;11.48;6.63;;;;;;;13.27;100.00;102615.69;4983179;28;20030;-78
2023/05/31 06:59:43;;;;;;;17.10;7.25;;;;;;;13.25;100.00;102620.84;4975469;28;20376;-77
2023/05/31 07:02:09;;;;;;;11.23;7.13;;;;;;;13.40;100.00;102617.31;4981060;28;21643;-77
2023/05/31 07:04:34;;;;;;;17.85;8.23;;;;;;;13.61;100.00;102619.94;4975072;28;20069;-77
2023/05/31 07:07:00;;;;;;;15.20;6.93;;;;;;;13.78;100.00;102621.66;4971827;28;20064;-77
2023/05/31 07:09:25;;;;;;;13.20;7.47;;;;;;;13.86;100.00;102623.50;4975545;28;20053;-77
2023/05/31 07:11:51;;;;;;;14.23;6.15;;;;;;;13.81;100.00;102626.59;4974416;28;21551;-77
2023/05/31 07:14:16;;;;;;;12.10;6.32;;;;;;;13.73;100.00;102619.09;4974049;28;20034;-78
2023/05/31 07:16:41;;;;;;;17.05;6.82;;;;;;;13.98;100.00;102620.63;4971646;28;20550;-78
2023/05/31 07:19:07;;;;;;;15.98;6.43;;;;;;;13.97;100.00;102610.53;4974016;28;20262;-78
2023/05/31 07:21:32;;;;;;;22.00;6.72;;;;;;;14.05;100.00;102622.81;4974896;28;20616;-78
2023/05/31 07:23:58;;;;;;;11.77;6.95;;;;;;;14.19;100.00;102620.41;4969815;28;20038;-78
2023/05/31 07:26:23;;;;;;;13.60;6.00;;;;;;;14.40;100.00;102608.09;4988158;28;20026;-78
2023/05/31 07:28:52;;;;;;;13.57;6.53;;;;;;;14.68;100.00;102619.28;4974747;28;20026;-78
2023/05/31 07:31:18;;;;;;;13.40;6.43;;;;;;;14.63;100.00;102622.38;4977054;28;20056;-78
2023/05/31 07:33:44;;;;;;;11.13;6.13;;;;;;;14.88;100.00;102625.00;4978004;28;20034;-78
2023/05/31 07:36:09;;;;;;;18.70;6.68;;;;;;;14.68;100.00;102624.94;4981164;28;20602;-78
2023/05/31 07:38:35;;;;;;;9.80;5.68;;;;;;;14.74;100.00;102612.22;4974787;28;22221;-78
2023/05/31 07:41:00;;;;;;;15.35;6.97;;;;;;;14.70;100.00;102621.75;4977140;28;20034;-78
2023/05/31 07:43:26;;;;;;;12.68;6.10;;;;;;;14.70;100.00;102619.75;4984497;28;20027;-78
2023/05/31 07:45:54;;;;;;;15.23;6.90;;;;;;;14.93;100.00;102619.09;4979421;28;20042;-78
2023/05/31 07:48:20;;;;;;;13.23;6.30;;;;;;;15.08;100.00;102618.25;4980856;28;20117;-78
2023/05/31 07:50:46;;;;;;;14.73;6.63;;;;;;;15.15;100.00;102611.97;4981442;28;20034;-78
2023/05/31 07:53:12;;;;;;;17.85;7.05;;;;;;;15.09;100.00;102622.69;4985399;28;20450;-78
2023/05/31 07:55:37;;;;;;;16.70;6.78;;;;;;;15.21;100.00;102622.59;4997038;28;20041;-79
2023/05/31 07:58:03;;;;;;;13.75;6.13;;;;;;;15.30;100.00;102616.72;4997535;28;20041;-79
2023/05/31 08:00:29;;;;;;;15.50;7.03;;;;;;;15.36;100.00;102609.63;4984472;28;20586;-79
2023/05/31 08:02:54;;;;;;;13.13;5.90;;;;;;;15.55;100.00;102617.28;4986802;28;20045;-78
2023/05/31 08:05:20;;;;;;;15.93;6.32;;;;;;;15.84;97.81;102612.28;4982872;28;20105;-79
2023/05/31 08:07:48;;;;;;;13.70;6.25;;;;;;;15.90;98.09;102610.78;4990710;28;20044;-79
2023/05/31 08:10:14;;;;;;;12.52;6.05;;;;;;;15.72;98.96;102610.41;4983926;28;20478;-79
2023/05/31 08:12:40;;;;;;;12.23;6.43;;;;;;;15.90;97.10;102607.97;4981595;28;20037;-79
2023/05/31 08:15:06;;;;;;;12.02;6.28;;;;;;;15.93;97.27;102598.75;4982246;28;20030;-79
2023/05/31 08:17:32;;;;;;;13.98;7.03;;;;;;;15.84;96.70;102609.47;4988056;28;20044;-78
2023/05/31 08:19:57;;;;;;;10.52;6.20;;;;;;;15.97;98.43;102610.13;4989098;28;20467;-79
2023/05/31 08:22:23;;;;;;;13.52;6.43;;;;;;;16.15;95.97;102604.81;4982825;28;20065;-79
2023/05/31 08:24:49;;;;;;;13.38;5.88;;;;;;;16.12;95.63;102600.72;4984789;28;20046;-78
2023/05/31 08:27:17;;;;;;;10.27;5.28;;;;;;;16.32;93.81;102601.50;4989175;28;20026;-79
2023/05/31 08:29:42;;;;;;;9.68;5.00;;;;;;;16.38;94.26;102597.19;4983958;28;20049;-78
2023/05/31 08:32:07;;;;;;;10.73;5.43;;;;;;;16.31;93.25;102599.06;4999540;28;20023;-78
2023/05/31 08:34:33;;;;;;;12.15;5.90;;;;;;;16.29;93.78;102593.78;4984764;28;20571;-79
2023/05/31 08:36:59;;;;;;;13.40;5.28;;;;;;;16.40;94.30;102600.44;4986011;28;20030;-78
2023/05/31 08:39:25;;;;;;;10.40;4.82;;;;;;;16.90;90.93;102599.66;4982907;28;20168;-79
2023/05/31 08:42:01;;;;;;;9.27;5.47;;;;;;;16.82;88.95;102596.75;4987638;28;20105;-78
2023/05/31 08:44:27;;;;;;;8.30;5.07;;;;;;;16.89;91.18;102586.72;4982774;28;20038;-79
2023/05/31 08:46:57;;;;;;;15.13;6.13;;;;;;;17.32;87.00;102584.53;4984152;28;20049;-78
2023/05/31 08:49:23;;;;;;;14.13;4.97;;;;;;;17.14;88.30;102587.09;4987718;28;20064;-78
2023/05/31 08:51:49;;;;;;;9.65;5.78;;;;;;;16.99;89.97;102588.91;4999497;28;20034;-78
2023/05/31 08:54:16;;;;;;;10.63;4.97;;;;;;;17.28;88.03;102588.09;4989409;28;20487;-78
2023/05/31 08:56:43;;;;;;;10.02;5.05;;;;;;;17.40;85.26;102591.91;4980544;28;20147;-78
2023/05/31 08:59:16;;;;;;;12.27;5.55;;;;;;;17.41;87.28;102596.38;4996108;28;20038;-77
2023/05/31 09:01:43;;;;;;;11.50;5.53;;;;;;;17.38;86.11;102585.81;4977636;28;21270;-78
2023/05/31 09:04:10;;;;;;;9.23;4.95;;;;;;;17.47;86.04;102578.66;4980243;28;20696;-78
2023/05/31 09:06:36;;;;;;;10.90;4.93;;;;;;;17.81;83.58;102587.16;4981011;28;20034;-78
2023/05/31 09:09:02;;;;;;;12.18;4.45;;;;;;;17.85;83.23;102587.25;4981182;28;20399;-78
2023/05/31 09:11:28;;;;;;;9.00;5.03;;;;;;;18.37;83.00;102585.34;4982724;28;20462;-78
2023/05/31 09:13:54;;;;;;;9.02;4.35;;;;;;;18.08;82.79;102587.91;4993193;28;20045;-78
2023/05/31 09:16:23;;;;;;;9.55;4.47;;;;;;;18.08;80.24;102581.44;4979697;28;20038;-78
2023/05/31 09:19:00;;;;;;;7.30;3.97;;;;;;;18.52;80.06;102582.66;4980731;28;20030;-77
2023/05/31 09:21:25;;;;;;;12.32;5.40;;;;;;;18.38;81.15;102574.81;4971023;28;20046;-77
2023/05/31 09:23:52;;;;;;;11.27;5.05;;;;;;;18.31;80.42;102569.09;4981125;28;20053;-78
2023/05/31 09:26:18;;;;;;;8.73;4.78;;;;;;;18.20;80.69;102569.00;4987896;28;20361;-78
2023/05/31 09:28:48;;;;;;;6.88;4.55;;;;;;;18.26;79.29;102567.44;4987454;28;20038;-77
2023/05/31 09:31:16;;;;;;;12.68;4.85;;;;;;;18.54;80.11;102566.06;4982999;28;20029;-78
2023/05/31 09:33:43;;;;;;;7.85;5.40;;;;;;;19.21;76.55;102562.91;5000644;28;20038;-78
2023/05/31 09:36:11;;;;;;;8.68;4.47;;;;;;;19.04;78.29;102560.78;4986310;28;20041;-78
2023/05/31 09:38:37;;;;;;;8.27;4.13;;;;;;;19.21;77.47;102564.94;4982375;28;20116;-78
2023/05/31 09:41:16;;;;;;;9.13;4.40;;;;;;;19.56;73.84;102552.91;4979641;28;20534;-78
2023/05/31 09:43:45;;;;;;;11.55;4.05;;;;;;;19.70;74.22;102553.00;4974971;28;20425;-78
2023/05/31 09:46:19;;;;;;;9.98;5.80;;;;;;;19.05;76.11;102557.53;4978238;28;20068;-78
2023/05/31 09:48:45;;;;;;;10.05;4.43;;;;;;;19.03;76.13;102559.16;4980155;28;20031;-77
2023/05/31 09:51:15;;;;;;;11.93;5.40;;;;;;;19.62;78.27;102550.50;4978535;28;20043;-78
2023/05/31 09:53:43;;;;;;;10.50;4.85;;;;;;;19.33;74.53;102552.41;4979674;28;20038;-78
2023/05/31 09:56:10;;;;;;;14.38;5.47;;;;;;;;;;4979252;28;20057;-78
2023/05/31 09:58:36;;;;;;;8.65;4.53;;;;;;;19.29;74.42;102550.38;4975466;28;20475;-77
2023/05/31 10:01:02;;;;;;;9.80;5.43;;;;;;;19.37;75.12;102556.88;4978731;28;20034;-78
2023/05/31 10:03:28;;;;;;;9.75;4.13;;;;;;;19.61;76.15;102549.69;4984769;28;20030;-78
2023/05/31 10:05:54;;;;;;;10.57;4.47;;;;;;;19.67;73.90;102548.09;5008106;28;20094;-78
2023/05/31 10:08:24;;;;;;;12.13;4.95;;;;;;;19.73;71.76;102551.38;4992979;28;20089;-77
2023/05/31 10:10:50;;;;;;;7.68;4.07;;;;;;;19.88;75.79;102543.69;4980473;28;20061;-78
2023/05/31 10:13:17;;;;;;;9.25;4.03;;;;;;;20.10;73.03;102544.56;4995695;28;20477;-78
2023/05/31 10:15:46;;;;;;;6.93;4.10;;;;;;;20.22;71.65;102538.50;4998685;28;20478;-78
2023/05/31 10:18:16;;;;;;;8.30;4.07;;;;;;;20.51;72.87;102536.47;4984749;28;20038;-78
2023/05/31 10:20:51;;;;;;;8.40;4.07;;;;;;;20.41;70.25;102536.47;4982528;28;20068;-78
2023/05/31 10:23:24;;;;;;;8.57;4.43;;;;;;;20.31;71.77;102536.06;4976640;28;20050;-77
2023/05/31 10:26:02;;;;;;;6.00;3.87;;;;;;;20.61;70.20;102534.03;4980493;28;20505;-77
2023/05/31 10:28:31;;;;;;;7.32;3.53;;;;;;;20.47;71.27;102538.50;4978607;28;20514;-78
2023/05/31 10:30:59;;;;;;;13.38;4.07;;;;;;;20.29;70.58;102520.63;4981084;28;20123;-77
2023/05/31 10:33:30;;;;;;;7.10;3.67;;;;;;;20.54;69.07;102525.50;4982852;28;20503;-78
2023/05/31 10:35:58;;;;;;;4.50;3.22;;;;;;;21.14;67.36;102524.56;4980673;28;20022;-78
2023/05/31 10:38:30;;;;;;;9.00;3.90;;;;;;;20.79;68.17;102523.47;4976398;28;20043;-79
2023/05/31 10:41:02;;;;;;;8.43;4.38;;;;;;;21.04;67.33;102514.88;4978711;28;20018;-76
2023/05/31 10:43:34;;;;;;;8.90;4.20;;;;;;;21.16;67.21;102510.75;4987108;28;20030;-76
2023/05/31 10:46:07;;;;;;;7.55;4.25;;;;;;;21.15;67.75;102509.13;4985110;28;20486;-77
2023/05/31 10:48:50;;;;;;;7.55;3.97;;;;;;;21.03;66.61;102501.03;4986017;28;20041;-77
2023/05/31 10:51:16;;;;;;;11.50;5.05;;;;;;;21.09;64.77;102505.09;4990415;28;20038;-78
2023/05/31 10:53:44;;;;;;;6.57;4.03;;;;;;;21.40;66.16;102508.19;4981574;28;20386;-78
2023/05/31 10:56:11;;;;;;;7.97;4.78;;;;;;;21.44;64.81;102497.63;4992901;28;20030;-78
2023/05/31 10:58:47;;;;;;;9.07;3.83;;;;;;;21.70;65.36;102499.94;4986294;28;20398;-78
2023/05/31 11:01:15;;;;;;;7.47;3.83;;;;;;;21.65;65.49;102491.84;4980883;28;20026;-78
2023/05/31 11:03:49;;;;;;;5.40;3.42;;;;;;;21.55;64.48;102486.19;4980509;28;20117;-78
2023/05/31 11:06:19;;;;;;;4.97;3.70;;;;;;;22.25;63.66;102489.78;4981872;28;20031;-77
2023/05/31 11:09:11;;;;;;;5.78;3.95;;;;;;;22.36;64.10;102483.19;4985325;28;20022;-78
2023/05/31 11:11:37;;;;;;;8.68;4.05;;;;;;;21.87;65.51;102486.00;4982727;28;20437;-78
2023/05/31 11:14:07;;;;;;;6.45;3.58;;;;;;;21.85;64.25;102477.84;4987787;28;20031;-78
2023/05/31 11:16:49;;;;;;;7.88;3.63;;;;;;;22.08;63.24;102487.88;4981233;28;20026;-78
2023/05/31 11:19:16;;;;;;;4.82;3.65;;;;;;;22.01;63.00;102485.06;4980475;28;20039;-78